createdAt,value
2018-08-04T00:00:22.462Z,97108.64
2018-08-04T00:02:51.954Z,97108.81
2018-08-04T00:05:19.605Z,97098.79
2018-08-04T00:07:52.476Z,97096.59
2018-08-04T00:10:21.092Z,97099.82
2018-08-04T00:12:52.282Z,97098.52
2018-08-04T00:15:20.425Z,97103.37
2018-08-04T00:17:49.214Z,97097.98
2018-08-04T00:20:17.151Z,97101.88
2018-08-04T00:22:46.424Z,97095.94
2018-08-04T00:25:15.557Z,97098.44
2018-08-04T00:27:43.112Z,97098.81
2018-08-04T00:30:13.144Z,97098.27
2018-08-04T00:32:41.763Z,97097.83
2018-08-04T00:35:10.133Z,97097.45
2018-08-04T00:37:37.592Z,97101.31
2018-08-04T00:40:05.712Z,97093.61
2018-08-04T00:42:32.876Z,97091.70
2018-08-04T00:44:59.997Z,97086.66
2018-08-04T00:47:27.151Z,97081.87
2018-08-04T00:49:54.272Z,97079.38
2018-08-04T00:52:21.444Z,97080.73
2018-08-04T00:54:48.621Z,97081.29
2018-08-04T00:57:15.948Z,97083.80
2018-08-04T00:59:43.068Z,97088.03
2018-08-04T01:02:10.237Z,97091.31
2018-08-04T01:04:37.369Z,97083.80
2018-08-04T01:07:04.516Z,97086.11
2018-08-04T01:09:31.677Z,97090.14
2018-08-04T01:11:58.820Z,97082.44
2018-08-04T01:14:25.945Z,97081.48
2018-08-04T01:16:53.131Z,97085.91
2018-08-04T01:19:20.305Z,97080.69
2018-08-04T01:21:47.539Z,97075.84
2018-08-04T01:24:14.855Z,97074.55
2018-08-04T01:26:42.102Z,97073.80
2018-08-04T01:29:09.229Z,97068.19
2018-08-04T01:31:36.379Z,97065.14
2018-08-04T01:34:03.603Z,97066.48
2018-08-04T01:36:30.780Z,97068.39
2018-08-04T01:38:57.951Z,97063.38
2018-08-04T01:41:25.124Z,97057.98
2018-08-04T01:43:52.228Z,97065.33
2018-08-04T01:46:19.372Z,97056.98
2018-08-04T01:48:46.548Z,97061.94
2018-08-04T01:51:13.697Z,97066.45
2018-08-04T01:53:40.864Z,97061.98
2018-08-04T01:56:07.969Z,97059.20
2018-08-04T01:58:35.093Z,97059.78
2018-08-04T02:01:02.381Z,97061.96
2018-08-04T02:03:29.778Z,97065.26
2018-08-04T02:05:56.906Z,97056.64
2018-08-04T02:08:24.133Z,97061.84
2018-08-04T02:10:51.296Z,97058.59
2018-08-04T02:13:18.441Z,97060.90
2018-08-04T02:15:45.613Z,97066.80
2018-08-04T02:18:12.783Z,97061.84
2018-08-04T02:20:40.152Z,97057.69
2018-08-04T02:23:07.261Z,97053.30
2018-08-04T02:25:34.420Z,97053.48
2018-08-04T02:28:01.561Z,97052.64
2018-08-04T02:30:28.681Z,97055.16
2018-08-04T02:32:55.848Z,97049.67
2018-08-04T02:35:22.972Z,97048.97
2018-08-04T02:37:50.107Z,97052.09
2018-08-04T02:40:17.248Z,97055.42
2018-08-04T02:42:44.403Z,97043.86
2018-08-04T02:45:11.621Z,97040.36
2018-08-04T02:47:38.763Z,97044.85
2018-08-04T02:50:06.823Z,97037.59
2018-08-04T02:52:34.064Z,97047.11
2018-08-04T02:55:01.181Z,97045.38
2018-08-04T02:57:28.521Z,97043.16
2018-08-04T02:59:55.697Z,97041.48
2018-08-04T03:02:23.041Z,97045.13
2018-08-04T03:04:50.232Z,97038.59
2018-08-04T03:07:17.370Z,97045.66
2018-08-04T03:09:44.496Z,97044.36
2018-08-04T03:12:11.633Z,97043.81
2018-08-04T03:14:38.799Z,97049.23
2018-08-04T03:17:06.023Z,97045.70
2018-08-04T03:19:33.150Z,97055.94
2018-08-04T03:22:00.436Z,97052.52
2018-08-04T03:24:27.584Z,97045.57
2018-08-04T03:26:54.714Z,97043.34
2018-08-04T03:29:21.821Z,97049.33
2018-08-04T03:31:49.004Z,97045.08
2018-08-04T03:34:16.130Z,97044.59
2018-08-04T03:36:50.223Z,97047.62
2018-08-04T03:39:17.495Z,97044.51
2018-08-04T03:41:44.651Z,97048.81
2018-08-04T03:44:11.769Z,97051.35
2018-08-04T03:46:38.913Z,97056.12
2018-08-04T03:49:06.062Z,97053.05
2018-08-04T03:51:33.239Z,97054.59
2018-08-04T03:54:00.556Z,97046.55
2018-08-04T03:56:27.801Z,97046.77
2018-08-04T03:58:54.915Z,97047.19
2018-08-04T04:01:22.113Z,97044.09
2018-08-04T04:03:49.257Z,97043.19
2018-08-04T04:06:16.388Z,97046.47
2018-08-04T04:08:43.534Z,97041.03
2018-08-04T04:11:10.686Z,97042.61
2018-08-04T04:13:37.815Z,97046.37
2018-08-04T04:16:05.024Z,97044.14
2018-08-04T04:18:32.360Z,97047.61
2018-08-04T04:20:59.528Z,97043.73
2018-08-04T04:23:26.632Z,97051.66
2018-08-04T04:25:53.813Z,97052.28
2018-08-04T04:28:20.895Z,97046.42
2018-08-04T04:30:54.740Z,97057.17
2018-08-04T04:33:21.869Z,97060.30
2018-08-04T04:35:49.028Z,97057.16
2018-08-04T04:38:16.152Z,97055.16
2018-08-04T04:40:43.432Z,97051.84
2018-08-04T04:43:10.575Z,97059.77
2018-08-04T04:45:37.721Z,97061.89
2018-08-04T04:48:04.856Z,97061.70
2018-08-04T04:50:31.965Z,97057.81
2018-08-04T04:52:59.224Z,97066.50
2018-08-04T04:55:26.570Z,97065.64
2018-08-04T04:57:53.649Z,97066.00
2018-08-04T05:00:21.057Z,97069.70
2018-08-04T05:02:51.184Z,97079.69
2018-08-04T05:05:18.309Z,97080.20
2018-08-04T05:07:45.497Z,97084.00
2018-08-04T05:10:12.608Z,97084.43
2018-08-04T05:12:39.818Z,97083.66
2018-08-04T05:15:07.616Z,97085.58
2018-08-04T05:17:34.755Z,97087.58
2018-08-04T05:20:01.968Z,97092.25
2018-08-04T05:22:29.124Z,97093.12
2018-08-04T05:24:56.271Z,97099.66
2018-08-04T05:27:23.390Z,97100.00
2018-08-04T05:29:50.527Z,97101.78
2018-08-04T05:32:17.666Z,97104.95
2018-08-04T05:34:51.640Z,97101.70
2018-08-04T05:37:18.822Z,97102.47
2018-08-04T05:39:45.986Z,97097.27
2018-08-04T05:42:15.723Z,97099.20
2018-08-04T05:44:42.902Z,97102.11
2018-08-04T05:47:10.042Z,97100.55
2018-08-04T05:49:37.184Z,97103.27
2018-08-04T05:52:04.665Z,97108.26
2018-08-04T05:54:31.807Z,97106.14
2018-08-04T05:56:58.951Z,97104.41
2018-08-04T05:59:26.128Z,97101.31
2018-08-04T06:01:53.305Z,97099.19
2018-08-04T06:04:20.534Z,97101.66
2018-08-04T06:06:47.698Z,97103.63
2018-08-04T06:09:14.866Z,97098.04
2018-08-04T06:11:42.068Z,97099.75
2018-08-04T06:14:09.208Z,97102.63
2018-08-04T06:16:36.339Z,97100.09
2018-08-04T06:19:03.528Z,97096.20
2018-08-04T06:21:30.692Z,97100.05
2018-08-04T06:23:57.828Z,97094.07
2018-08-04T06:26:24.999Z,97092.75
2018-08-04T06:28:52.125Z,97083.09
2018-08-04T06:31:19.320Z,97091.38
2018-08-04T06:33:46.484Z,97099.27
2018-08-04T06:36:13.611Z,97101.78
2018-08-04T06:38:40.779Z,97099.09
2018-08-04T06:41:07.889Z,97095.45
2018-08-04T06:43:35.124Z,97101.42
2018-08-04T06:46:02.301Z,97101.36
2018-08-04T06:48:29.440Z,97101.55
2018-08-04T06:50:56.568Z,97108.84
2018-08-04T06:53:23.763Z,97108.12
2018-08-04T06:55:50.889Z,97109.48
2018-08-04T06:58:18.030Z,97112.83
2018-08-04T07:00:45.261Z,97110.92
2018-08-04T07:03:12.389Z,97121.09
2018-08-04T07:05:39.591Z,97116.56
2018-08-04T07:08:06.714Z,97115.94
2018-08-04T07:10:34.108Z,97111.38
2018-08-04T07:13:01.261Z,97115.09
2018-08-04T07:15:28.443Z,97111.72
2018-08-04T07:17:55.620Z,97110.65
2018-08-04T07:20:22.760Z,97112.66
2018-08-04T07:22:49.974Z,97111.84
2018-08-04T07:25:17.107Z,97116.06
2018-08-04T07:27:44.249Z,97115.06
2018-08-04T07:30:12.112Z,97109.41
2018-08-04T07:32:39.873Z,97099.02
2018-08-04T07:35:07.017Z,97105.44
2018-08-04T07:37:34.248Z,97112.78
2018-08-04T07:40:01.498Z,97114.95
2018-08-04T07:42:28.654Z,97105.53
2018-08-04T07:44:55.799Z,97113.19
2018-08-04T07:47:22.971Z,97118.25
2018-08-04T07:49:50.152Z,97114.66
2018-08-04T07:52:17.311Z,97120.77
2018-08-04T07:54:44.445Z,97115.80
2018-08-04T07:59:55.740Z,97117.89
2018-08-04T08:02:22.856Z,97118.43
2018-08-04T08:04:50.016Z,97120.67
2018-08-04T08:07:20.838Z,97122.39
2018-08-04T08:09:50.088Z,97131.11
2018-08-04T08:12:17.489Z,97130.59
2018-08-04T08:14:44.629Z,97123.40
2018-08-04T08:17:11.729Z,97138.19
2018-08-04T08:19:38.865Z,97130.82
2018-08-04T08:22:06.081Z,97127.20
2018-08-04T08:24:33.212Z,97121.98
2018-08-04T08:27:00.344Z,97125.72
2018-08-04T08:29:27.473Z,97134.45
2018-08-04T08:31:54.624Z,97126.64
2018-08-04T08:34:21.765Z,97125.59
2018-08-04T08:36:48.916Z,97127.61
2018-08-04T08:39:16.088Z,97126.13
2018-08-04T08:41:43.292Z,97125.43
2018-08-04T08:44:10.407Z,97127.02
2018-08-04T08:46:37.520Z,97125.41
2018-08-04T08:49:04.751Z,97120.59
2018-08-04T08:51:31.919Z,97123.23
2018-08-04T08:53:59.140Z,97124.23
2018-08-04T08:56:26.281Z,97128.01
2018-08-04T08:58:53.443Z,97131.03
2018-08-04T09:01:20.669Z,97125.88
2018-08-04T09:03:47.840Z,97128.18
2018-08-04T09:06:14.958Z,97120.94
2018-08-04T09:08:42.148Z,97126.84
2018-08-04T09:11:09.296Z,97124.66
2018-08-04T09:13:36.414Z,97125.60
2018-08-04T09:16:03.544Z,97124.84
2018-08-04T09:18:30.693Z,97127.56
2018-08-04T09:20:57.849Z,97126.97
2018-08-04T09:23:24.940Z,97129.88
2018-08-04T09:25:52.105Z,97135.13
2018-08-04T09:28:19.309Z,97121.11
2018-08-04T09:30:46.534Z,97119.94
2018-08-04T09:33:13.658Z,97119.87
2018-08-04T09:35:40.808Z,97117.05
2018-08-04T09:38:07.944Z,97118.67
2018-08-04T09:40:35.129Z,97124.07
2018-08-04T09:43:02.256Z,97121.81
2018-08-04T09:45:29.370Z,97124.62
2018-08-04T09:47:56.561Z,97123.00
2018-08-04T09:50:23.722Z,97127.45
2018-08-04T09:52:50.907Z,97096.95
2018-08-04T09:55:18.004Z,97123.56
2018-08-04T09:57:45.149Z,97119.31
2018-08-04T10:00:18.489Z,97118.58
2018-08-04T10:02:45.888Z,97119.95
2018-08-04T10:05:13.068Z,97117.56
2018-08-04T10:07:40.179Z,97116.90
2018-08-04T10:10:07.366Z,97110.41
2018-08-04T10:12:34.557Z,97116.28
2018-08-04T10:15:02.547Z,97112.02
2018-08-04T10:17:29.737Z,97111.20
2018-08-04T10:19:56.877Z,97107.56
2018-08-04T10:22:24.098Z,97102.81
2018-08-04T10:24:51.241Z,97113.42
2018-08-04T10:27:18.436Z,97105.36
2018-08-04T10:29:45.617Z,97100.88
2018-08-04T10:32:13.002Z,97099.15
2018-08-04T10:34:39.959Z,97098.78
2018-08-04T10:37:07.152Z,97096.42
2018-08-04T10:39:34.266Z,97096.22
2018-08-04T10:42:01.413Z,97096.00
2018-08-04T10:44:28.540Z,97099.64
2018-08-04T10:46:55.666Z,97101.30
2018-08-04T10:49:22.868Z,97101.97
2018-08-04T10:51:50.020Z,97090.81
2018-08-04T10:54:17.396Z,97094.67
2018-08-04T10:56:44.500Z,97091.35
2018-08-04T10:59:11.675Z,97089.92
2018-08-04T11:01:38.855Z,97085.57
2018-08-04T11:04:06.088Z,97079.28
2018-08-04T11:06:33.273Z,97081.37
2018-08-04T11:09:00.523Z,97075.22
2018-08-04T11:11:27.677Z,97070.34
2018-08-04T11:13:54.803Z,97068.32
2018-08-04T11:16:21.960Z,97055.75
2018-08-04T11:18:49.104Z,97058.52
2018-08-04T11:21:16.269Z,97048.38
2018-08-04T11:23:43.447Z,97050.53
2018-08-04T11:26:10.626Z,97046.36
2018-08-04T11:28:37.749Z,97051.73
2018-08-04T11:31:04.938Z,97046.36
2018-08-04T11:33:32.084Z,97052.29
2018-08-04T11:35:59.227Z,97051.60
2018-08-04T11:38:26.333Z,97040.26
2018-08-04T11:40:53.513Z,97038.37
2018-08-04T11:43:20.677Z,97030.92
2018-08-04T11:45:47.808Z,97026.08
2018-08-04T11:48:14.919Z,97019.38
2018-08-04T11:50:42.037Z,97018.16
2018-08-04T11:53:09.197Z,97009.30
2018-08-04T11:55:36.385Z,97014.00
2018-08-04T11:58:03.654Z,97009.95
2018-08-04T12:00:30.829Z,97001.56
2018-08-04T12:02:57.996Z,97003.80
2018-08-04T12:05:25.183Z,96999.41
2018-08-04T12:07:52.280Z,97003.28
2018-08-04T12:10:19.439Z,96997.48
2018-08-04T12:12:46.812Z,96997.57
2018-08-04T12:15:13.965Z,96992.34
2018-08-04T12:17:41.074Z,96987.59
2018-08-04T12:20:08.993Z,96990.81
2018-08-04T12:22:36.125Z,96986.62
2018-08-04T12:25:03.898Z,96986.53
2018-08-04T12:27:31.096Z,96975.26
2018-08-04T12:29:58.242Z,96977.95
2018-08-04T12:32:25.476Z,96977.81
2018-08-04T12:34:52.562Z,96978.38
2018-08-04T12:37:19.797Z,96970.66
2018-08-04T12:39:46.958Z,96968.72
2018-08-04T12:42:14.211Z,96964.01
2018-08-04T12:44:41.304Z,96967.52
2018-08-04T12:47:08.409Z,96960.19
2018-08-04T12:49:35.556Z,96959.27
2018-08-04T12:52:02.700Z,96954.66
2018-08-04T12:54:29.917Z,96948.05
2018-08-04T12:56:57.048Z,96943.11
2018-08-04T12:59:24.188Z,96943.33
2018-08-04T13:01:51.398Z,96939.73
2018-08-04T13:04:18.537Z,96937.62
2018-08-04T13:06:45.665Z,96929.69
2018-08-04T13:09:12.801Z,96927.69
2018-08-04T13:11:39.918Z,96925.72
2018-08-04T13:14:07.115Z,96933.62
2018-08-04T13:16:34.337Z,96930.89
2018-08-04T13:19:01.618Z,96926.08
2018-08-04T13:21:28.988Z,96920.75
2018-08-04T13:23:56.119Z,96925.22
2018-08-04T13:26:23.315Z,96917.66
2018-08-04T13:28:50.501Z,96920.45
2018-08-04T13:31:17.736Z,96920.56
2018-08-04T13:33:44.989Z,96929.78
2018-08-04T13:36:12.205Z,96936.20
2018-08-04T13:38:39.458Z,96917.61
2018-08-04T13:41:06.740Z,96912.56
2018-08-04T13:43:33.908Z,96916.43
2018-08-04T13:46:01.066Z,96916.84
2018-08-04T13:48:28.268Z,96923.75
2018-08-04T13:50:55.494Z,96922.80
2018-08-04T13:53:22.656Z,96929.95
2018-08-04T13:55:49.782Z,96937.48
2018-08-04T13:58:16.945Z,96927.80
2018-08-04T14:00:44.141Z,96923.98
2018-08-04T14:03:11.356Z,96917.97
2018-08-04T14:05:38.467Z,96929.84
2018-08-04T14:08:05.659Z,96937.78
2018-08-04T14:10:32.816Z,96942.52
2018-08-04T14:13:00.037Z,96938.89
2018-08-04T14:15:27.241Z,96928.08
2018-08-04T14:17:54.401Z,96923.55
2018-08-04T14:20:21.559Z,96922.33
2018-08-04T14:22:48.748Z,96909.09
2018-08-04T14:25:15.920Z,96901.44
2018-08-04T14:27:43.123Z,96896.05
2018-08-04T14:30:10.678Z,96900.36
2018-08-04T14:32:37.861Z,96917.05
2018-08-04T14:35:05.491Z,96931.95
2018-08-04T14:37:33.017Z,96941.75
2018-08-04T14:40:00.151Z,96934.95
2018-08-04T14:42:27.344Z,96925.06
2018-08-04T14:44:54.499Z,96924.51
2018-08-04T14:47:21.684Z,96913.11
2018-08-04T14:49:48.864Z,96934.17
2018-08-04T14:52:16.072Z,96952.48
2018-08-04T14:54:43.300Z,96959.67
2018-08-04T14:57:10.498Z,96965.73
2018-08-04T14:59:37.636Z,96967.96
2018-08-04T15:02:05.847Z,96982.95
2018-08-04T15:04:32.975Z,97011.73
2018-08-04T15:07:00.162Z,97019.00
2018-08-04T15:09:27.292Z,97007.34
2018-08-04T15:11:54.423Z,96995.38
2018-08-04T15:14:21.714Z,96972.80
2018-08-04T15:16:48.894Z,96959.36
2018-08-04T15:19:16.061Z,96959.41
2018-08-04T15:21:43.264Z,96968.73
2018-08-04T15:24:10.349Z,96975.25
2018-08-04T15:26:37.484Z,96983.61
2018-08-04T15:29:04.632Z,96984.45
2018-08-04T15:31:31.763Z,96970.89
2018-08-04T15:33:58.951Z,96967.47
2018-08-04T15:36:26.093Z,96972.33
2018-08-04T15:38:53.372Z,96984.00
2018-08-04T15:41:20.527Z,96974.79
2018-08-04T15:43:47.670Z,96959.40
2018-08-04T15:46:14.808Z,96962.45
2018-08-04T15:48:41.962Z,96964.14
2018-08-04T15:51:09.096Z,96960.53
2018-08-04T15:53:36.320Z,96954.73
2018-08-04T15:56:03.512Z,96967.70
2018-08-04T15:58:30.625Z,96977.42
2018-08-04T16:00:57.760Z,96989.03
2018-08-04T16:03:24.901Z,96986.55
2018-08-04T16:05:52.049Z,96989.38
2018-08-04T16:08:19.247Z,96986.50
2018-08-04T16:10:46.364Z,96982.72
2018-08-04T16:13:13.520Z,96977.23
2018-08-04T16:15:40.704Z,96980.60
2018-08-04T16:18:07.861Z,96986.53
2018-08-04T16:20:35.012Z,96983.16
2018-08-04T16:23:02.125Z,96993.13
2018-08-04T16:25:29.250Z,96991.16
2018-08-04T16:27:56.373Z,96996.30
2018-08-04T16:30:23.536Z,96996.52
2018-08-04T16:32:50.691Z,96997.09
2018-08-04T16:35:17.849Z,97004.93
2018-08-04T16:37:45.144Z,97000.45
2018-08-04T16:40:12.272Z,96996.01
2018-08-04T16:42:39.419Z,96988.19
2018-08-04T16:45:06.540Z,96982.95
2018-08-04T16:47:33.697Z,96978.17
2018-08-04T16:50:00.843Z,96965.72
2018-08-04T16:52:27.953Z,96963.96
2018-08-04T16:54:55.088Z,96959.95
2018-08-04T16:57:22.277Z,96949.00
2018-08-04T16:59:49.452Z,96916.88
2018-08-04T17:02:16.608Z,96937.39
2018-08-04T17:04:43.767Z,96938.08
2018-08-04T17:07:10.968Z,96935.12
2018-08-04T17:09:38.126Z,96938.02
2018-08-04T17:12:05.252Z,96948.16
2018-08-04T17:14:32.404Z,96945.59
2018-08-04T17:16:59.535Z,96951.28
2018-08-04T17:19:26.664Z,96952.32
2018-08-04T17:21:53.950Z,96955.56
2018-08-04T17:24:21.132Z,96958.53
2018-08-04T17:26:48.304Z,96969.27
2018-08-04T17:29:15.408Z,96968.80
2018-08-04T17:31:42.601Z,96969.60
2018-08-04T17:34:09.707Z,96967.57
2018-08-04T17:36:36.916Z,96966.68
2018-08-04T17:39:06.476Z,96962.33
2018-08-04T17:41:33.608Z,96961.91
2018-08-04T17:44:00.720Z,96933.14
2018-08-04T17:46:27.848Z,96966.13
2018-08-04T17:48:55.010Z,96961.18
2018-08-04T17:51:22.174Z,96975.98
2018-08-04T17:53:49.325Z,97008.19
2018-08-04T17:56:16.469Z,97002.02
2018-08-04T17:58:50.525Z,96996.27
2018-08-04T18:01:17.724Z,96976.09
2018-08-04T18:03:44.932Z,96984.58
2018-08-04T18:06:12.057Z,96985.22
2018-08-04T18:08:39.181Z,96971.22
2018-08-04T18:11:06.423Z,96975.57
2018-08-04T18:13:33.580Z,96973.69
2018-08-04T18:16:01.675Z,96972.56
2018-08-04T18:18:28.823Z,96965.86
2018-08-04T18:20:55.959Z,96966.13
2018-08-04T18:23:23.178Z,96971.20
2018-08-04T18:25:50.260Z,96988.09
2018-08-04T18:28:17.432Z,96980.68
2018-08-04T18:30:44.572Z,96977.54
2018-08-04T18:33:11.716Z,96982.22
2018-08-04T18:35:38.896Z,96977.65
2018-08-04T18:38:06.252Z,96978.30
2018-08-04T18:40:33.445Z,96982.16
2018-08-04T18:43:00.590Z,96981.81
2018-08-04T18:45:27.745Z,96983.28
2018-08-04T18:47:54.986Z,96987.16
2018-08-04T18:50:22.153Z,96984.68
2018-08-04T18:52:49.306Z,96992.31
2018-08-04T18:55:16.461Z,97001.57
2018-08-04T18:57:43.648Z,96999.86
2018-08-04T19:00:10.840Z,96998.48
2018-08-04T19:02:37.958Z,97005.50
2018-08-04T19:05:05.199Z,97007.23
2018-08-04T19:07:32.352Z,97002.52
2018-08-04T19:09:59.461Z,97008.05
2018-08-04T19:12:26.623Z,97020.50
2018-08-04T19:14:53.851Z,97025.69
2018-08-04T19:17:21.025Z,97020.63
2018-08-04T19:19:48.143Z,97011.19
2018-08-04T19:22:15.664Z,97019.30
2018-08-04T19:24:42.786Z,97017.14
2018-08-04T19:27:09.945Z,97022.34
2018-08-04T19:29:37.077Z,97018.38
2018-08-04T19:32:05.184Z,97012.61
2018-08-04T19:34:32.305Z,97017.77
2018-08-04T19:37:00.274Z,97019.94
2018-08-04T19:39:27.423Z,97017.12
2018-08-04T19:41:54.564Z,97017.92
2018-08-04T19:44:21.681Z,97019.98
2018-08-04T19:46:48.867Z,97020.55
2018-08-04T19:49:15.992Z,97018.80
2018-08-04T19:51:43.365Z,97014.02
2018-08-04T19:54:10.534Z,97013.59
2018-08-04T19:56:37.705Z,97015.15
2018-08-04T19:59:05.081Z,97015.52
2018-08-04T20:01:32.244Z,97015.28
2018-08-04T20:03:59.409Z,97016.37
2018-08-04T20:06:26.532Z,97014.59
2018-08-04T20:08:53.705Z,97012.92
2018-08-04T20:11:20.877Z,97019.08
2018-08-04T20:13:48.309Z,97015.91
2018-08-04T20:16:15.469Z,97007.59
2018-08-04T20:18:42.651Z,97009.52
2018-08-04T20:21:09.784Z,97009.55
2018-08-04T20:23:36.960Z,97008.70
2018-08-04T20:26:04.136Z,97009.91
2018-08-04T20:28:31.313Z,97002.38
2018-08-04T20:30:58.480Z,97002.57
2018-08-04T20:33:25.658Z,97009.11
2018-08-04T20:35:52.836Z,97011.61
2018-08-04T20:38:20.078Z,97012.17
2018-08-04T20:40:47.267Z,97005.23
2018-08-04T20:43:14.475Z,97009.05
2018-08-04T20:45:41.653Z,97010.83
2018-08-04T20:48:08.792Z,97007.58
2018-08-04T20:50:35.947Z,97004.70
2018-08-04T20:53:03.623Z,97001.41
2018-08-04T20:55:30.783Z,97003.31
2018-08-04T20:57:57.971Z,96989.82
2018-08-04T21:00:25.644Z,96997.37
2018-08-04T21:02:52.752Z,96992.37
2018-08-04T21:05:19.997Z,96994.64
2018-08-04T21:07:47.130Z,96997.16
2018-08-04T21:10:14.272Z,97000.67
2018-08-04T21:12:41.412Z,97005.08
2018-08-04T21:15:08.568Z,97012.17
2018-08-04T21:17:35.722Z,97019.31
2018-08-04T21:20:03.857Z,97022.56
2018-08-04T21:22:30.986Z,97001.33
2018-08-04T21:24:58.104Z,97016.55
2018-08-04T21:27:25.287Z,97012.34
2018-08-04T21:29:52.431Z,97012.92
2018-08-04T21:32:19.589Z,97016.20
2018-08-04T21:34:46.770Z,97012.15
2018-08-04T21:37:13.897Z,97003.47
2018-08-04T21:39:41.059Z,97004.65
2018-08-04T21:42:08.207Z,97008.10
2018-08-04T21:44:42.069Z,97013.50
2018-08-04T21:47:09.201Z,97015.63
2018-08-04T21:49:36.305Z,97020.36
2018-08-04T21:52:03.484Z,97017.87
2018-08-04T21:54:30.644Z,97017.31
2018-08-04T21:56:57.771Z,97013.13
2018-08-04T21:59:24.919Z,97012.20
2018-08-04T22:01:53.021Z,97012.97
2018-08-04T22:04:20.110Z,97021.76
2018-08-04T22:07:56.381Z,97027.86
2018-08-04T22:10:23.554Z,97027.97
2018-08-04T22:12:50.746Z,97022.86
2018-08-04T22:15:17.936Z,97026.77
2018-08-04T22:17:45.056Z,97023.13
2018-08-04T22:20:13.450Z,97022.36
2018-08-04T22:22:41.005Z,97021.63
2018-08-04T22:25:10.229Z,97028.55
2018-08-04T22:27:37.398Z,97025.22
2018-08-04T22:30:05.852Z,97016.97
2018-08-04T22:32:33.057Z,97024.27
2018-08-04T22:35:00.229Z,97025.52
2018-08-04T22:37:27.493Z,97013.56
2018-08-04T22:39:54.629Z,97010.97
2018-08-04T22:42:21.709Z,97006.58
2018-08-04T22:46:11.989Z,97018.89
2018-08-04T22:48:39.619Z,97022.48
2018-08-04T22:51:06.806Z,97025.91
2018-08-04T22:53:34.297Z,97024.44
2018-08-04T22:56:01.409Z,97027.13
2018-08-04T22:58:28.541Z,97015.78
2018-08-04T23:00:55.724Z,97023.82
2018-08-04T23:03:22.880Z,97019.75
2018-08-04T23:05:49.993Z,97019.82
2018-08-04T23:08:17.128Z,97017.41
2018-08-04T23:10:44.508Z,97018.17
2018-08-04T23:13:12.109Z,97017.64
2018-08-04T23:15:39.276Z,97023.25
2018-08-04T23:18:06.648Z,97030.20
2018-08-04T23:20:33.817Z,97032.70
2018-08-04T23:23:00.971Z,97026.74
2018-08-04T23:25:35.130Z,97027.86
2018-08-04T23:28:02.295Z,97027.13
2018-08-04T23:30:29.476Z,97028.02
2018-08-04T23:32:56.673Z,97022.45
2018-08-04T23:35:24.884Z,97021.16
2018-08-04T23:37:52.191Z,97021.55
2018-08-04T23:40:19.843Z,97015.13
2018-08-04T23:42:47.000Z,97012.22
2018-08-04T23:45:14.248Z,97005.35
2018-08-04T23:47:41.451Z,97008.34
2018-08-04T23:50:08.709Z,97006.62
2018-08-04T23:52:35.855Z,97003.55
2018-08-04T23:55:03.898Z,97007.70
2018-08-04T23:57:31.052Z,97013.58
2018-08-04T23:59:58.215Z,97014.45
